CYED/YED METAR and TAF weather

Enter ICAO airport designator
Station Type Date Time Source
CYED METAR 2018/10/21 06:00 UTC NOAA

CYED 210600Z AUTO 25005KT 9SM CLR 02/M07 A3003 RMK SLP188


Station Type Date Time Source
CYED Decoded METAR 2018/10/21 06:00 UTC NOAA

Edmonton Namao Alta., Canada (CYED) 53-40N 113-28W 688M
Oct 21, 2018 - 02:00 AM EDT / 2018.10.21 0600 UTC
Wind: from the WSW (250 degrees) at 6 MPH (5 KT):0
Visibility: 9 mile(s):0
Sky conditions: clear
Temperature: 35 F (2 C)
Windchill: 30 F (-1 C):1
Dew Point: 19 F (-7 C)
Relative Humidity: 51%
Pressure (altimeter): 30.03 in. Hg (1016 hPa)
ob: CYED 210600Z AUTO 25005KT 9SM CLR 02/M07 A3003 RMK SLP188
cycle: 6

Station Type Date Time Source
CYED TAF 2018/10/20 00:48 UTC NOAA

TAF
AMD TAF
AMD CYED 200546Z 2000/2012 FCST CNCLD DUE END OF FLYING PROGRAM
RMK NXT FCST WILL BE ISSUED AT 221215Z


Example: see airport list